Avi Francisco — EA8622 — position and weather

sailwx.info

Track history (hours):
 
Tides and Currents Weather Stations Pressure Air Temp Water Temp Dewpoint Dewpoint Depression Visibility Wind Speed Wind Dir Waves Ship Positions

Avi Francisco

Last reported at 2017-Oct-20 05:00 UTC. Time now 2017-Oct-20 05:23 UTC.
Position N 41°10' E 001°46'.

Length 20 m.

Type: Fishing. MMSI: 224169750.

Date/timePositionNaut miles runAvg speedWind from/ knotsBaromVisibWave heightAir tempDewpointWater temp
2017-Oct-20 05:00N 41°10' E 001°46'3 6.8
2017-Oct-20 04:30N 41°13' E 001°44'0 0.0
2017-Oct-19 10:48N 41°13' E 001°44'2 5.8
2017-Oct-19 10:30N 41°11' E 001°44'2 4.3
2017-Oct-19 10:00N 41°09' E 001°43'1 2.8
2017-Oct-19 09:30N 41°09' E 001°45'1 2.8
2017-Oct-19 09:00N 41°09' E 001°47'1 2.7
2017-Oct-19 08:30N 41°10' E 001°48'1 2.8
2017-Oct-19 08:00N 41°10' E 001°50'2 2.7
2017-Oct-19 07:25N 41°11' E 001°52'0 0.7
2017-Oct-19 07:00N 41°11' E 001°52'1 2.9
2017-Oct-19 06:30N 41°10' E 001°50'1 2.8
2017-Oct-19 06:00N 41°10' E 001°48'1 2.8
2017-Oct-19 05:30N 41°09' E 001°46'1 3.0
2017-Oct-19 05:00N 41°10' E 001°44'3 6.6
2017-Oct-19 04:30N 41°13' E 001°44'0 0.0
2017-Oct-18 13:46N 41°13' E 001°44'0 0.0
2017-Oct-18 13:31N 41°13' E 001°44'0 0.0
2017-Oct-18 13:00N 41°13' E 001°44'0 0.0
2017-Oct-18 12:30N 41°13' E 001°44'1 1.7
2017-Oct-18 12:00N 41°12' E 001°43'5 9.5
2017-Oct-18 11:30N 41°10' E 001°49'1 1.6
2017-Oct-18 10:59N 41°10' E 001°50'3 0.6
2017-Oct-18 06:17N 41°11' E 001°54'1 2.8
2017-Oct-18 05:48N 41°11' E 001°52'1 2.8
2017-Oct-18 05:29N 41°10' E 001°51'2 5.0
2017-Oct-18 05:01N 41°11' E 001°48'4 7.1
2017-Oct-18 04:30N 41°13' E 001°44'0 0.0
2017-Oct-17 12:57N 41°13' E 001°44'0 0.0
2017-Oct-17 12:30N 41°13' E 001°44'0 0.0
2017-Oct-17 12:01N 41°13' E 001°44'3 5.8
2017-Oct-17 11:30N 41°11' E 001°47'2 4.0
2017-Oct-17 11:00N 41°10' E 001°49'1 2.8
2017-Oct-17 10:30N 41°10' E 001°51'1 0.3
2017-Oct-17 07:37N 41°10' E 001°52'0 2.8
2017-Oct-17 07:31N 41°10' E 001°51'1 2.8
2017-Oct-17 07:00N 41°10' E 001°49'1 1.2
2017-Oct-17 06:29N 41°09' E 001°49'1 2.0
2017-Oct-17 06:00N 41°09' E 001°47'1 2.8
2017-Oct-17 05:30N 41°09' E 001°46'2 3.0
2017-Oct-17 05:00N 41°09' E 001°44'4 7.1
2017-Oct-17 04:30N 41°13' E 001°44'0 0.0
2017-Oct-16 13:17N 41°13' E 001°44'0 0.0
2017-Oct-16 13:01N 41°13' E 001°44'1 2.3
2017-Oct-16 12:30N 41°12' E 001°45'4 7.9
2017-Oct-16 12:01N 41°10' E 001°49'1 2.2
2017-Oct-16 11:28N 41°10' E 001°51'2 0.4
2017-Oct-16 07:37N 41°09' E 001°53'0 3.1
2017-Oct-16 07:29N 41°10' E 001°52'1 0.6
2017-Oct-16 05:28N 41°10' E 001°54'510.4
2017-Oct-16 05:00N 41°11' E 001°48'3 6.3
2017-Oct-16 04:30N 41°13' E 001°44'  
2017-Oct-13 14:21N 41°13' E 001°44'0 0.0
2017-Oct-13 14:00N 41°13' E 001°44'0 0.0
2017-Oct-13 13:30N 41°13' E 001°44'0 0.1
2017-Oct-13 13:00N 41°13' E 001°44'1 1.4
2017-Oct-13 12:30N 41°12' E 001°44'510.3
2017-Oct-13 11:59N 41°10' E 001°50'1 1.3
2017-Oct-13 11:30N 41°10' E 001°51'1 2.8
2017-Oct-13 11:00N 41°09' E 001°49'1 2.8
2017-Oct-13 10:30N 41°09' E 001°47'1 2.8
2017-Oct-13 10:00N 41°09' E 001°45'1 1.7
2017-Oct-13 09:30N 41°09' E 001°44'1 2.8
2017-Oct-13 09:00N 41°09' E 001°46'1 2.9
2017-Oct-13 08:30N 41°09' E 001°48'1 2.8
2017-Oct-13 08:00N 41°10' E 001°50'1 2.1
2017-Oct-13 07:18N 41°10' E 001°52'1 0.7
2017-Oct-13 05:23N 41°10' E 001°53'411.1
2017-Oct-13 05:00N 41°11' E 001°48'3 6.6
2017-Oct-13 04:30N 41°13' E 001°44'  
2017-Oct-10 14:42N 41°13' E 001°44'0 0.0
2017-Oct-10 14:01N 41°13' E 001°44'0 0.0
2017-Oct-10 13:30N 41°13' E 001°44'0 0.0
2017-Oct-10 13:00N 41°13' E 001°44'0 0.0
2017-Oct-10 12:30N 41°13' E 001°44'0 0.0
2017-Oct-10 12:00N 41°13' E 001°44'0 0.0
2017-Oct-10 11:30N 41°13' E 001°44'0 0.0
2017-Oct-10 11:00N 41°13' E 001°44'0 0.0
2017-Oct-10 10:30N 41°13' E 001°44'3 6.6
2017-Oct-10 10:00N 41°10' E 001°46'4 1.0
2017-Oct-10 05:23N 41°09' E 001°52'411.1
2017-Oct-10 05:01N 41°11' E 001°47'  
Track history (hours):
 
Tides and Currents Weather Stations Pressure Air Temp Water Temp Dewpoint Dewpoint Depression Visibility Wind Speed Wind Dir Waves Ship Positions

Avi Francisco

Last reported at 2017-Oct-20 05:00 UTC. Time now 2017-Oct-20 05:23 UTC.
Position N 41°10' E 001°46'.

Length 20 m.

Type: Fishing. MMSI: 224169750.

Date/timePositionNaut miles runAvg speedWind from/ knotsBaromVisibWave heightAir tempDewpointWater temp
2017-Oct-20 05:00N 41°10' E 001°46'3 6.8
2017-Oct-20 04:30N 41°13' E 001°44'0 0.0
2017-Oct-19 10:48N 41°13' E 001°44'2 5.8
2017-Oct-19 10:30N 41°11' E 001°44'2 4.3
2017-Oct-19 10:00N 41°09' E 001°43'1 2.8
2017-Oct-19 09:30N 41°09' E 001°45'1 2.8
2017-Oct-19 09:00N 41°09' E 001°47'1 2.7
2017-Oct-19 08:30N 41°10' E 001°48'1 2.8
2017-Oct-19 08:00N 41°10' E 001°50'2 2.7
2017-Oct-19 07:25N 41°11' E 001°52'0 0.7
2017-Oct-19 07:00N 41°11' E 001°52'1 2.9
2017-Oct-19 06:30N 41°10' E 001°50'1 2.8
2017-Oct-19 06:00N 41°10' E 001°48'1 2.8
2017-Oct-19 05:30N 41°09' E 001°46'1 3.0
2017-Oct-19 05:00N 41°10' E 001°44'3 6.6
2017-Oct-19 04:30N 41°13' E 001°44'0 0.0
2017-Oct-18 13:46N 41°13' E 001°44'0 0.0
2017-Oct-18 13:31N 41°13' E 001°44'0 0.0
2017-Oct-18 13:00N 41°13' E 001°44'0 0.0
2017-Oct-18 12:30N 41°13' E 001°44'1 1.7
2017-Oct-18 12:00N 41°12' E 001°43'5 9.5
2017-Oct-18 11:30N 41°10' E 001°49'1 1.6
2017-Oct-18 10:59N 41°10' E 001°50'3 0.6
2017-Oct-18 06:17N 41°11' E 001°54'1 2.8
2017-Oct-18 05:48N 41°11' E 001°52'1 2.8
2017-Oct-18 05:29N 41°10' E 001°51'2 5.0
2017-Oct-18 05:01N 41°11' E 001°48'4 7.1
2017-Oct-18 04:30N 41°13' E 001°44'0 0.0
2017-Oct-17 12:57N 41°13' E 001°44'0 0.0
2017-Oct-17 12:30N 41°13' E 001°44'0 0.0
2017-Oct-17 12:01N 41°13' E 001°44'3 5.8
2017-Oct-17 11:30N 41°11' E 001°47'2 4.0
2017-Oct-17 11:00N 41°10' E 001°49'1 2.8
2017-Oct-17 10:30N 41°10' E 001°51'1 0.3
2017-Oct-17 07:37N 41°10' E 001°52'0 2.8
2017-Oct-17 07:31N 41°10' E 001°51'1 2.8
2017-Oct-17 07:00N 41°10' E 001°49'1 1.2
2017-Oct-17 06:29N 41°09' E 001°49'1 2.0
2017-Oct-17 06:00N 41°09' E 001°47'1 2.8
2017-Oct-17 05:30N 41°09' E 001°46'2 3.0
2017-Oct-17 05:00N 41°09' E 001°44'4 7.1
2017-Oct-17 04:30N 41°13' E 001°44'0 0.0
2017-Oct-16 13:17N 41°13' E 001°44'0 0.0
2017-Oct-16 13:01N 41°13' E 001°44'1 2.3
2017-Oct-16 12:30N 41°12' E 001°45'4 7.9
2017-Oct-16 12:01N 41°10' E 001°49'1 2.2
2017-Oct-16 11:28N 41°10' E 001°51'2 0.4
2017-Oct-16 07:37N 41°09' E 001°53'0 3.1
2017-Oct-16 07:29N 41°10' E 001°52'1 0.6
2017-Oct-16 05:28N 41°10' E 001°54'510.4
2017-Oct-16 05:00N 41°11' E 001°48'3 6.3
2017-Oct-16 04:30N 41°13' E 001°44'  
2017-Oct-13 14:21N 41°13' E 001°44'0 0.0
2017-Oct-13 14:00N 41°13' E 001°44'0 0.0
2017-Oct-13 13:30N 41°13' E 001°44'0 0.1
2017-Oct-13 13:00N 41°13' E 001°44'1 1.4
2017-Oct-13 12:30N 41°12' E 001°44'510.3
2017-Oct-13 11:59N 41°10' E 001°50'1 1.3
2017-Oct-13 11:30N 41°10' E 001°51'1 2.8
2017-Oct-13 11:00N 41°09' E 001°49'1 2.8
2017-Oct-13 10:30N 41°09' E 001°47'1 2.8
2017-Oct-13 10:00N 41°09' E 001°45'1 1.7
2017-Oct-13 09:30N 41°09' E 001°44'1 2.8
2017-Oct-13 09:00N 41°09' E 001°46'1 2.9
2017-Oct-13 08:30N 41°09' E 001°48'1 2.8
2017-Oct-13 08:00N 41°10' E 001°50'1 2.1
2017-Oct-13 07:18N 41°10' E 001°52'1 0.7
2017-Oct-13 05:23N 41°10' E 001°53'411.1
2017-Oct-13 05:00N 41°11' E 001°48'3 6.6
2017-Oct-13 04:30N 41°13' E 001°44'  
2017-Oct-10 14:42N 41°13' E 001°44'0 0.0
2017-Oct-10 14:01N 41°13' E 001°44'0 0.0
2017-Oct-10 13:30N 41°13' E 001°44'0 0.0
2017-Oct-10 13:00N 41°13' E 001°44'0 0.0
2017-Oct-10 12:30N 41°13' E 001°44'0 0.0
2017-Oct-10 12:00N 41°13' E 001°44'0 0.0
2017-Oct-10 11:30N 41°13' E 001°44'0 0.0
2017-Oct-10 11:00N 41°13' E 001°44'0 0.0
2017-Oct-10 10:30N 41°13' E 001°44'3 6.6
2017-Oct-10 10:00N 41°10' E 001°46'4 1.0
2017-Oct-10 05:23N 41°09' E 001°52'411.1
2017-Oct-10 05:01N 41°11' E 001°47'  

Dump ship's entire track history